• Join FlightAware (Why Join?)
  • Login
  • US Flag 
07:07AM EDT


 

Airport Tracker/Info


-or-


 

Live Flight TrackerFlight Track Log ✈ FIN666 ✈ 27-Oct-2013 ✈ EKCH / CPH - EFHK / HEL

Flight Track Log - Related Links

Times and Time Zones

All times are in EDT time to prevent confusion due to time zone crossing. See the FIN666 flight status page for this flight to view local times or setup timezone preferences in your user account.

Time Position Orientation Groundspeed Altitude Reporting Facility
EDT Latitude Longitude Course Direction KTS MPH feet Rate Location/Type
08:25AM 55.8520 13.1400 49° Northeast  Level Estimated
08:26AM 55.9296 13.3027 50° Northeast  Level Estimated
08:27AM 56.0070 13.4660 50° Northeast  Level Estimated
08:28AM 56.0842 13.6299 50° Northeast  Level Estimated
08:29AM 56.1612 13.7945 50° Northeast  Level Estimated
08:30AM 56.2403 13.9649 50° Northeast  Level Estimated
08:31AM 56.3192 14.1360 50° Northeast  Level Estimated
08:32AM 56.3978 14.3078 50° Northeast  Level Estimated
08:33AM 56.4762 14.4803 51° Northeast  Level Estimated
08:34AM 56.5543 14.6535 51° Northeast  Level Estimated
08:35AM 56.6323 14.8274 51° Northeast  Level Estimated
08:36AM 56.7099 15.0020 51° Northeast  Level Estimated
08:37AM 56.7873 15.1774 51° Northeast  Level Estimated
08:38AM 56.8645 15.3534 51° Northeast  Level Estimated
08:39AM 56.9414 15.5302 51° Northeast  Level Estimated
08:40AM 57.0181 15.7078 52° Northeast  Level Estimated
08:41AM 57.0946 15.8861 52° Northeast  Level Estimated
08:42AM 57.1707 16.0651 52° Northeast  Level Estimated
08:43AM 57.2466 16.2448 52° Northeast  Level Estimated
08:44AM 57.3223 16.4253 52° Northeast  Level Estimated
08:45AM 57.3977 16.6065 52° Northeast  Level Estimated
08:46AM 57.4728 16.7885 52° Northeast  Level Estimated
08:47AM 57.5477 16.9712 53° Northeast  Level Estimated
08:48AM 57.6223 17.1547 53° Northeast  Level Estimated
08:49AM 57.6967 17.3389 53° Northeast  Level Estimated
08:50AM 57.7707 17.5239 53° Northeast  Level Estimated
08:51AM 57.8445 17.7096 53° Northeast  Level Estimated
08:52AM 57.9180 17.8961 53° Northeast  Level Estimated
08:53AM 57.9913 18.0834 54° Northeast  Level Estimated
08:54AM 58.0643 18.2714 54° Northeast  Level Estimated
08:55AM 58.1370 18.4602 54° Northeast  Level Estimated
08:56AM 58.2094 18.6498 54° Northeast  Level Estimated
08:57AM 58.2816 18.8401 54° Northeast  Level Estimated
08:58AM 58.3534 19.0312 54° Northeast  Level Estimated
08:59AM 58.4250 19.2232 54° Northeast  Level Estimated
09:00AM 58.4963 19.4158 55° Northeast  Level Estimated
09:01AM 58.5672 19.6093 55° Northeast  Level Estimated
09:02AM 58.6380 19.8035 55° Northeast  Level Estimated
09:03AM 58.7084 19.9986 55° Northeast  Level Estimated
09:04AM 58.7785 20.1944 55° Northeast  Level Estimated
09:05AM 58.8483 20.3910 55° Northeast  Level Estimated
09:06AM 58.9178 20.5884 56° Northeast  Level Estimated
09:07AM 58.9870 20.7866 56° Northeast  Level Estimated
09:08AM 59.0559 20.9856 56° Northeast  Level Estimated
09:09AM 59.1245 21.1854 56° Northeast  Level Estimated
09:10AM 59.1928 21.3860 56° Northeast  Level Estimated
09:11AM 59.2608 21.5874 56° Northeast  Level Estimated
09:12AM 59.3284 21.7896 57° Northeast  Level Estimated
09:13AM 59.3958 21.9925 57° Northeast  Level Estimated
09:14AM 59.4628 22.1964 57° Northeast  Level Estimated
09:15AM 59.5296 22.4010 57° Northeast  Level Estimated
09:16AM 59.5960 22.6064 57° Northeast  Level Estimated
09:17AM 59.6620 22.8127 58° Northeast  Level Estimated
09:18AM 59.7278 23.0197 58° Northeast  Level Estimated
09:19AM 59.7932 23.2276 58° Northeast  Level Estimated
09:20AM 59.8583 23.4362 58° Northeast  Level Estimated
09:21AM 59.9231 23.6457 58° Northeast  Level Estimated
09:22AM 59.9875 23.8561 58° Northeast  Level Estimated
09:23AM 60.0516 24.0672 59° Northeast  Level Estimated
09:24AM 60.1154 24.2791 59° Northeast  Level Estimated
09:25AM 60.1788 24.4919 59° Northeast  Level Estimated
09:26AM 60.2419 24.7055 59° Northeast  Level Estimated
09:27AM 60.3046 24.9199 59° Northeast  Level Estimated
09:28AM 60.3172 24.9633 60° Northeast  Level Estimated
09:29AM 60.3172 24.9633 37° Northeast  Level Estimated
09:30AM 60.3172 24.9633 37° Northeast  Level Estimated
09:31AM 60.3172 24.9633 37° Northeast  Level Estimated
09:32AM 60.3172 24.9633 37° Northeast  Level Estimated
09:33AM 60.3172 24.9633 37° Northeast  Level Estimated
09:34AM 60.3172 24.9633 37° Northeast  Level Estimated
09:35AM 60.3172 24.9633 37° Northeast  Level Estimated
09:36AM 60.3172 24.9633 37° Northeast  Level Estimated
09:37AM 60.3172 24.9633 37° Northeast  Level Estimated
09:38AM 60.3172 24.9633 37° Northeast  Level Estimated
09:39AM 60.3172 24.9633 37° Northeast  Level Estimated
09:40AM 60.3172 24.9633 37° Northeast  Level Estimated
09:41AM 60.3172 24.9633 37° Northeast  Level Estimated
09:42AM 60.3172 24.9633 37° Northeast  Level Estimated